createdAt,value
2018-06-13T00:01:14.343Z,97.40
2018-06-13T00:03:42.775Z,97.10
2018-06-13T00:06:11.195Z,97.00
2018-06-13T00:08:39.640Z,96.80
2018-06-13T00:11:08.123Z,96.70
2018-06-13T00:13:36.584Z,96.70
2018-06-13T00:16:05.124Z,96.70
2018-06-13T00:18:33.567Z,96.70
2018-06-13T00:21:01.996Z,96.40
2018-06-13T00:23:30.636Z,96.70
2018-06-13T00:25:59.079Z,96.50
2018-06-13T00:28:27.501Z,96.50
2018-06-13T00:30:55.959Z,96.70
2018-06-13T00:35:52.516Z,96.60
2018-06-13T00:38:20.947Z,96.50
2018-06-13T00:40:49.407Z,96.40
2018-06-13T00:43:17.835Z,96.50
2018-06-13T00:45:46.264Z,96.50
2018-06-13T00:48:14.723Z,96.60
2018-06-13T00:50:43.160Z,96.50
2018-06-13T00:53:11.640Z,96.70
2018-06-13T00:55:51.432Z,96.60
2018-06-13T01:00:47.991Z,96.40
2018-06-13T01:03:16.453Z,96.40
2018-06-13T01:05:44.888Z,96.50
2018-06-13T01:08:13.323Z,96.70
2018-06-13T01:10:41.768Z,96.40
2018-06-13T01:13:10.198Z,96.30
2018-06-13T01:15:38.653Z,96.40
2018-06-13T01:20:35.200Z,96.60
2018-06-13T01:25:31.745Z,96.40
2018-06-13T01:28:00.208Z,96.90
2018-06-13T01:30:28.636Z,96.90
2018-06-13T01:35:25.219Z,96.80
2018-06-13T01:37:53.663Z,96.90
2018-06-13T01:42:50.192Z,96.80
2018-06-13T01:45:18.644Z,96.80
2018-06-13T01:47:47.916Z,96.80
2018-06-13T01:50:16.368Z,96.80
2018-06-13T01:55:12.931Z,97.00
2018-06-13T02:00:09.472Z,97.50
2018-06-13T02:02:37.919Z,97.50
2018-06-13T02:05:06.340Z,97.50
2018-06-13T02:10:02.899Z,97.60
2018-06-13T02:14:59.448Z,98.20
2018-06-13T02:19:56.040Z,98.60
2018-06-13T02:22:24.519Z,98.60
2018-06-13T02:24:52.967Z,98.90
2018-06-13T02:29:49.523Z,99.40
2018-06-13T02:34:46.096Z,99.60
2018-06-13T02:37:14.556Z,99.80
2018-06-13T02:42:11.160Z,99.90
2018-06-13T02:44:39.608Z,99.90
2018-06-13T02:47:08.075Z,99.90
2018-06-13T02:49:36.528Z,99.90
2018-06-13T02:52:05.034Z,99.90
2018-06-13T02:54:33.476Z,99.90
2018-06-13T02:57:01.928Z,99.90
2018-06-13T02:59:30.405Z,99.90
2018-06-13T03:01:58.844Z,99.90
2018-06-13T03:04:27.318Z,99.90
2018-06-13T03:06:55.776Z,99.90
2018-06-13T03:09:24.249Z,99.90
2018-06-13T03:11:52.699Z,99.90
2018-06-13T03:14:21.180Z,99.90
2018-06-13T03:16:49.640Z,99.90
2018-06-13T03:19:18.107Z,99.90
2018-06-13T03:21:46.575Z,99.90
2018-06-13T03:24:15.060Z,99.90
2018-06-13T03:26:43.571Z,99.90
2018-06-13T03:31:40.165Z,99.90
2018-06-13T03:34:08.633Z,99.90
2018-06-13T03:36:37.091Z,99.90
2018-06-13T03:39:08.000Z,99.90
2018-06-13T03:41:36.549Z,99.90
2018-06-13T03:44:05.084Z,99.90
2018-06-13T03:49:01.693Z,99.90
2018-06-13T03:51:30.171Z,99.90
2018-06-13T03:53:58.615Z,99.90
2018-06-13T03:56:27.117Z,99.90
2018-06-13T03:58:55.568Z,99.90
2018-06-13T04:01:24.047Z,99.90
2018-06-13T04:03:52.543Z,99.90
2018-06-13T04:06:20.987Z,99.90
2018-06-13T04:08:49.460Z,99.90
2018-06-13T04:11:17.931Z,99.90
2018-06-13T04:13:46.399Z,99.90
2018-06-13T04:16:14.860Z,99.90
2018-06-13T04:18:43.327Z,99.90
2018-06-13T04:23:39.924Z,99.90
2018-06-13T04:26:08.381Z,99.90
2018-06-13T04:28:36.852Z,99.90
2018-06-13T04:31:05.302Z,99.90
2018-06-13T04:33:33.768Z,99.90
2018-06-13T04:36:02.213Z,99.90
2018-06-13T04:38:30.656Z,99.90
2018-06-13T04:40:59.136Z,99.90
2018-06-13T04:43:27.597Z,99.90
2018-06-13T04:45:56.064Z,99.90
2018-06-13T04:48:24.511Z,99.90
2018-06-13T04:50:52.984Z,99.90
2018-06-13T04:53:21.431Z,99.90
2018-06-13T04:55:49.909Z,99.90
2018-06-13T04:58:18.419Z,99.90
2018-06-13T05:00:46.843Z,99.90
2018-06-13T05:03:15.320Z,99.90
2018-06-13T05:05:43.775Z,99.90
2018-06-13T05:08:12.244Z,99.90
2018-06-13T05:13:08.839Z,99.90
2018-06-13T05:15:37.296Z,99.90
2018-06-13T05:18:05.775Z,99.90
2018-06-13T05:20:34.251Z,99.90
2018-06-13T05:23:02.701Z,99.90
2018-06-13T05:25:31.175Z,99.90
2018-06-13T05:27:59.635Z,99.90
2018-06-13T05:30:28.108Z,99.90
2018-06-13T05:32:56.576Z,99.90
2018-06-13T05:35:25.056Z,99.90
2018-06-13T05:37:53.768Z,99.90
2018-06-13T05:40:22.228Z,99.90
2018-06-13T05:42:50.704Z,99.90
2018-06-13T05:45:19.155Z,99.90
2018-06-13T05:50:15.764Z,99.90
2018-06-13T05:52:44.256Z,99.90
2018-06-13T05:55:12.728Z,99.90
2018-06-13T05:57:41.204Z,99.90
2018-06-13T06:00:09.692Z,99.90
2018-06-13T06:02:38.144Z,99.90
2018-06-13T06:05:06.668Z,99.90
2018-06-13T06:07:35.128Z,99.90
2018-06-13T06:10:03.663Z,99.90
2018-06-13T06:12:32.130Z,99.90
2018-06-13T06:15:00.604Z,99.90
2018-06-13T06:17:29.052Z,99.90
2018-06-13T06:19:57.509Z,99.90
2018-06-13T06:27:22.280Z,99.80
2018-06-13T06:29:50.736Z,99.30
2018-06-13T06:32:19.208Z,99.10
2018-06-13T06:34:47.665Z,99.00
2018-06-13T06:37:16.120Z,99.30
2018-06-13T06:39:44.604Z,99.20
2018-06-13T06:42:13.058Z,99.10
2018-06-13T06:44:41.556Z,98.30
2018-06-13T06:47:10.005Z,98.20
2018-06-13T06:49:38.517Z,98.30
2018-06-13T06:52:06.959Z,98.40
2018-06-13T06:54:35.435Z,97.80
2018-06-13T06:57:03.889Z,97.70
2018-06-13T06:59:32.383Z,97.20
2018-06-13T07:02:00.860Z,97.00
2018-06-13T07:04:29.319Z,96.80
2018-06-13T07:06:57.787Z,96.50
2018-06-13T07:09:26.240Z,96.70
2018-06-13T07:11:54.707Z,96.90
2018-06-13T07:14:23.159Z,96.50
2018-06-13T07:16:51.599Z,96.10
2018-06-13T07:19:20.112Z,95.40
2018-06-13T07:21:48.559Z,96.30
2018-06-13T07:24:17.029Z,95.30
2018-06-13T07:26:45.480Z,93.90
2018-06-13T07:31:42.069Z,92.80
2018-06-13T07:34:10.535Z,91.80
2018-06-13T07:36:38.996Z,91.90
2018-06-13T07:44:04.616Z,93.20
2018-06-13T07:46:33.083Z,93.10
2018-06-13T07:49:01.574Z,91.30
2018-06-13T07:51:30.080Z,91.20
2018-06-13T07:53:58.537Z,91.40
2018-06-13T07:56:26.995Z,91.40
2018-06-13T07:58:55.459Z,91.40
2018-06-13T08:01:23.908Z,91.60
2018-06-13T08:03:52.400Z,91.50
2018-06-13T08:08:49.094Z,90.40
2018-06-13T08:11:17.568Z,90.40
2018-06-13T08:13:46.040Z,90.70
2018-06-13T08:16:14.487Z,90.40
2018-06-13T08:18:42.936Z,90.60
2018-06-13T08:21:12.302Z,90.90
2018-06-13T08:23:40.780Z,90.20
2018-06-13T08:26:09.333Z,88.60
2018-06-13T08:28:37.771Z,87.70
2018-06-13T08:31:06.386Z,87.20
2018-06-13T08:33:34.839Z,87.80
2018-06-13T08:36:03.436Z,89.50
2018-06-13T08:38:31.896Z,89.10
2018-06-13T08:41:00.344Z,89.00
2018-06-13T08:45:56.939Z,89.70
2018-06-13T08:48:25.471Z,89.90
2018-06-13T08:50:53.932Z,89.90
2018-06-13T08:53:22.404Z,90.30
2018-06-13T08:55:50.931Z,89.40
2018-06-13T08:58:19.336Z,89.50
2018-06-13T09:00:47.836Z,87.80
2018-06-13T09:03:16.295Z,87.20
2018-06-13T09:05:44.772Z,85.60
2018-06-13T09:08:13.227Z,87.50
2018-06-13T09:10:41.693Z,86.70
2018-06-13T09:13:10.148Z,86.00
2018-06-13T09:15:38.643Z,83.90
2018-06-13T09:18:07.124Z,81.90
2018-06-13T09:20:35.611Z,81.00
2018-06-13T09:23:04.092Z,80.50
2018-06-13T09:25:32.561Z,80.80
2018-06-13T09:28:01.032Z,81.30
2018-06-13T09:30:29.503Z,81.60
2018-06-13T09:32:58.035Z,79.20
2018-06-13T09:35:26.487Z,80.40
2018-06-13T09:37:54.933Z,81.90
2018-06-13T09:40:23.441Z,81.50
2018-06-13T09:42:51.892Z,82.30
2018-06-13T09:45:20.371Z,83.20
2018-06-13T09:47:48.826Z,80.60
2018-06-13T09:50:17.309Z,79.40
2018-06-13T09:55:13.912Z,77.60
2018-06-13T09:57:42.376Z,76.70
2018-06-13T10:00:16.167Z,75.60
2018-06-13T10:02:44.639Z,75.50
2018-06-13T10:07:41.296Z,75.90
2018-06-13T10:12:37.883Z,77.90
2018-06-13T10:15:06.351Z,77.70
2018-06-13T10:17:34.825Z,78.40
2018-06-13T10:20:03.281Z,79.30
2018-06-13T10:22:31.726Z,80.80
2018-06-13T10:25:00.195Z,79.70
2018-06-13T10:27:34.028Z,82.00
2018-06-13T10:30:02.504Z,81.20
2018-06-13T10:32:30.942Z,80.60
2018-06-13T10:34:59.424Z,80.60
2018-06-13T10:37:27.872Z,80.90
2018-06-13T10:39:56.328Z,81.50
2018-06-13T10:42:24.802Z,81.00
2018-06-13T10:44:53.251Z,82.90
2018-06-13T10:47:21.720Z,84.20
2018-06-13T10:49:50.175Z,83.40
2018-06-13T10:52:18.648Z,83.10
2018-06-13T10:54:47.108Z,81.60
2018-06-13T10:57:15.555Z,81.10
2018-06-13T10:59:44.033Z,81.70
2018-06-13T11:02:12.487Z,83.10
2018-06-13T11:04:40.960Z,81.90
2018-06-13T11:07:09.404Z,83.70
2018-06-13T11:09:37.872Z,83.60
2018-06-13T11:12:06.392Z,82.60
2018-06-13T11:14:34.868Z,82.50
2018-06-13T11:17:03.331Z,82.00
2018-06-13T11:19:31.788Z,82.00
2018-06-13T11:22:00.292Z,81.20
2018-06-13T11:24:28.744Z,82.90
2018-06-13T11:26:57.219Z,80.40
2018-06-13T11:29:25.655Z,81.90
2018-06-13T11:31:54.124Z,79.40
2018-06-13T11:34:22.624Z,79.70
2018-06-13T11:36:51.656Z,76.90
2018-06-13T11:41:48.240Z,75.90
2018-06-13T11:44:16.711Z,74.70
2018-06-13T11:46:45.163Z,74.30
2018-06-13T11:51:41.780Z,75.60
2018-06-13T11:54:10.263Z,71.60
2018-06-13T11:56:38.708Z,71.50
2018-06-13T12:01:35.356Z,69.00
2018-06-13T12:04:03.820Z,69.90
2018-06-13T12:09:00.417Z,65.20
2018-06-13T12:11:28.914Z,67.90
2018-06-13T12:13:57.364Z,64.70
2018-06-13T12:16:25.819Z,66.30
2018-06-13T12:18:54.296Z,67.60
2018-06-13T12:23:50.899Z,67.30
2018-06-13T12:26:19.361Z,68.20
2018-06-13T12:28:47.976Z,69.10
2018-06-13T12:31:16.424Z,68.00
2018-06-13T12:33:44.888Z,68.50
2018-06-13T12:36:13.345Z,66.60
2018-06-13T12:38:42.277Z,68.60
2018-06-13T12:41:10.719Z,68.80
2018-06-13T12:43:39.187Z,70.00
2018-06-13T12:46:07.664Z,70.00
2018-06-13T12:48:36.131Z,70.50
2018-06-13T12:51:04.660Z,71.00
2018-06-13T12:56:01.260Z,69.80
2018-06-13T12:58:29.740Z,72.20
2018-06-13T13:00:58.195Z,70.90
2018-06-13T13:03:26.651Z,71.50
2018-06-13T13:08:23.240Z,72.70
2018-06-13T13:10:51.716Z,72.00
2018-06-13T13:13:20.172Z,73.10
2018-06-13T13:18:16.768Z,69.80
2018-06-13T13:20:45.248Z,67.00
2018-06-13T13:23:13.723Z,67.10
2018-06-13T13:25:42.159Z,67.30
2018-06-13T13:28:10.640Z,68.50
2018-06-13T13:30:39.096Z,68.00
2018-06-13T13:33:07.536Z,67.40
2018-06-13T13:35:36.126Z,67.50
2018-06-13T13:38:04.704Z,68.10
2018-06-13T13:40:33.179Z,68.50
2018-06-13T13:43:01.622Z,66.50
2018-06-13T13:45:30.094Z,66.10
2018-06-13T13:47:58.556Z,65.20
2018-06-13T13:50:27.016Z,65.50
2018-06-13T13:52:55.489Z,67.20
2018-06-13T13:55:23.992Z,67.90
2018-06-13T13:57:52.468Z,67.20
2018-06-13T14:00:20.928Z,67.50
2018-06-13T14:02:49.368Z,68.70
2018-06-13T14:05:17.863Z,67.60
2018-06-13T14:07:46.303Z,69.50
2018-06-13T14:10:14.799Z,70.50
2018-06-13T14:12:43.264Z,69.90
2018-06-13T14:15:11.770Z,67.50
2018-06-13T14:17:40.255Z,67.20
2018-06-13T14:20:08.779Z,66.20
2018-06-13T14:22:37.360Z,67.00
2018-06-13T14:27:33.991Z,66.10
2018-06-13T14:30:02.460Z,65.50
2018-06-13T14:32:30.903Z,66.70
2018-06-13T14:34:59.379Z,66.80
2018-06-13T14:37:27.848Z,66.60
2018-06-13T14:39:56.335Z,67.10
2018-06-13T14:42:24.803Z,67.20
2018-06-13T14:44:53.564Z,67.70
2018-06-13T14:47:22.039Z,68.00
2018-06-13T14:49:50.492Z,68.40
2018-06-13T14:52:18.976Z,68.90
2018-06-13T14:54:47.435Z,68.50
2018-06-13T14:57:15.900Z,68.30
2018-06-13T14:59:44.375Z,69.10
2018-06-13T15:02:12.852Z,69.50
2018-06-13T15:04:41.322Z,69.70
2018-06-13T15:09:37.911Z,70.50
2018-06-13T15:12:06.451Z,70.50
2018-06-13T15:14:34.920Z,71.80
2018-06-13T15:17:03.395Z,71.20
2018-06-13T15:19:31.867Z,71.40
2018-06-13T15:22:00.354Z,72.40
2018-06-13T15:24:28.831Z,73.60
2018-06-13T15:26:57.296Z,74.10
2018-06-13T15:29:25.756Z,73.90
2018-06-13T15:31:54.244Z,74.90
2018-06-13T15:34:22.735Z,75.10
2018-06-13T15:36:51.266Z,74.10
2018-06-13T15:39:19.728Z,73.00
2018-06-13T15:41:48.220Z,73.50
2018-06-13T15:44:16.721Z,74.30
2018-06-13T15:49:13.308Z,73.80
2018-06-13T15:51:42.090Z,75.20
2018-06-13T15:54:10.572Z,74.50
2018-06-13T15:56:39.090Z,75.50
2018-06-13T15:59:07.576Z,74.60
2018-06-13T16:01:36.101Z,74.10
2018-06-13T16:04:04.644Z,73.70
2018-06-13T16:06:33.128Z,73.00
2018-06-13T16:09:01.604Z,73.70
2018-06-13T16:11:30.060Z,72.20
2018-06-13T16:13:58.548Z,72.30
2018-06-13T16:16:27.004Z,73.80
2018-06-13T16:18:55.479Z,73.30
2018-06-13T16:21:23.944Z,73.00
2018-06-13T16:26:20.588Z,74.00
2018-06-13T16:31:17.236Z,75.60
2018-06-13T16:33:45.704Z,74.90
2018-06-13T16:36:14.175Z,74.30
2018-06-13T16:38:42.616Z,74.70
2018-06-13T16:41:11.088Z,74.60
2018-06-13T16:43:39.591Z,74.00
2018-06-13T16:46:08.068Z,74.40
2018-06-13T16:48:36.626Z,74.70
2018-06-13T16:51:16.492Z,74.90
2018-06-13T16:53:52.340Z,75.50
2018-06-13T16:56:21.207Z,74.10
2018-06-13T16:58:50.435Z,75.70
2018-06-13T17:03:47.184Z,74.90
2018-06-13T17:06:15.694Z,75.00
2018-06-13T17:08:44.179Z,73.70
2018-06-13T17:11:12.672Z,74.70
2018-06-13T17:13:41.158Z,76.40
2018-06-13T17:16:09.632Z,75.30
2018-06-13T17:18:38.096Z,75.70
2018-06-13T17:21:06.731Z,76.40
2018-06-13T17:23:35.851Z,75.70
2018-06-13T17:31:00.981Z,76.70
2018-06-13T17:35:57.664Z,77.90
2018-06-13T17:38:26.155Z,79.70
2018-06-13T17:40:54.652Z,80.50
2018-06-13T17:43:23.133Z,80.60
2018-06-13T17:45:51.615Z,80.90
2018-06-13T17:48:20.084Z,81.80
2018-06-13T17:50:48.613Z,82.00
2018-06-13T17:53:17.037Z,83.20
2018-06-13T17:55:45.513Z,83.70
2018-06-13T17:58:13.960Z,83.80
2018-06-13T18:00:42.436Z,83.10
2018-06-13T18:03:11.030Z,84.80
2018-06-13T18:05:39.500Z,84.90
2018-06-13T18:08:07.988Z,86.00
2018-06-13T18:10:36.488Z,86.30
2018-06-13T18:13:10.664Z,85.10
2018-06-13T18:15:39.160Z,86.00
2018-06-13T18:18:07.696Z,85.10
2018-06-13T18:20:36.180Z,85.20
2018-06-13T18:23:04.668Z,85.90
2018-06-13T18:25:33.149Z,86.20
2018-06-13T18:28:01.621Z,86.70
2018-06-13T18:30:30.095Z,86.60
2018-06-13T18:32:58.555Z,87.10
2018-06-13T18:35:27.035Z,87.00
2018-06-13T18:37:55.935Z,89.10
2018-06-13T18:42:52.543Z,88.40
2018-06-13T18:45:21.004Z,88.90
2018-06-13T18:47:49.496Z,89.40
2018-06-13T18:50:17.972Z,89.50
2018-06-13T18:52:46.444Z,90.00
2018-06-13T18:55:14.900Z,90.00
2018-06-13T19:02:39.683Z,90.50
2018-06-13T19:05:08.159Z,90.60
2018-06-13T19:07:36.612Z,90.30
2018-06-13T19:10:05.260Z,90.30
2018-06-13T19:12:33.717Z,90.00
2018-06-13T19:15:02.184Z,90.40
2018-06-13T19:17:30.669Z,90.20
2018-06-13T19:19:59.183Z,90.40
2018-06-13T19:22:27.673Z,90.70
2018-06-13T19:24:56.131Z,90.40
2018-06-13T19:27:24.604Z,90.40
2018-06-13T19:29:53.060Z,90.40
2018-06-13T19:32:21.531Z,90.00
2018-06-13T19:34:49.987Z,90.00
2018-06-13T19:37:18.451Z,90.10
2018-06-13T19:39:46.899Z,89.90
2018-06-13T19:42:15.359Z,90.10
2018-06-13T19:44:43.859Z,89.70
2018-06-13T19:47:17.635Z,90.00
2018-06-13T19:49:46.103Z,90.10
2018-06-13T19:54:48.107Z,90.60
2018-06-13T19:57:16.567Z,90.80
2018-06-13T20:04:46.767Z,91.30
2018-06-13T20:07:15.283Z,91.00
2018-06-13T20:09:43.779Z,91.40
2018-06-13T20:14:55.695Z,91.70
2018-06-13T20:19:57.799Z,91.40
2018-06-13T20:22:26.371Z,91.40
2018-06-13T20:27:33.852Z,91.30
2018-06-13T20:30:07.795Z,91.50
2018-06-13T20:32:36.276Z,91.40
2018-06-13T20:35:04.851Z,91.80
2018-06-13T20:37:33.344Z,91.60
2018-06-13T20:40:01.807Z,91.80
2018-06-13T20:42:30.313Z,92.20
2018-06-13T20:44:58.807Z,92.00
2018-06-13T20:47:27.284Z,92.00
2018-06-13T20:49:55.820Z,92.30
2018-06-13T20:52:24.850Z,92.40
2018-06-13T20:54:53.360Z,92.50
2018-06-13T20:57:21.847Z,92.70
2018-06-13T20:59:50.379Z,92.80
2018-06-13T21:04:46.999Z,93.10
2018-06-13T21:07:15.466Z,92.90
2018-06-13T21:09:43.947Z,92.50
2018-06-13T21:12:12.403Z,92.60
2018-06-13T21:14:40.875Z,92.60
2018-06-13T21:17:09.340Z,93.00
2018-06-13T21:22:06.107Z,93.00
2018-06-13T21:27:03.052Z,93.10
2018-06-13T21:29:31.524Z,93.10
2018-06-13T21:32:00.009Z,92.90
2018-06-13T21:34:28.473Z,93.30
2018-06-13T21:36:56.951Z,93.20
2018-06-13T21:39:25.404Z,93.10
2018-06-13T21:41:53.884Z,93.10
2018-06-13T21:44:22.403Z,93.20
2018-06-13T21:46:50.864Z,93.30
2018-06-13T21:49:19.339Z,93.40
2018-06-13T21:51:47.784Z,93.20
2018-06-13T21:54:16.255Z,93.40
2018-06-13T21:59:12.897Z,93.30
2018-06-13T22:01:41.356Z,93.40
2018-06-13T22:04:09.852Z,93.40
2018-06-13T22:06:38.323Z,93.20
2018-06-13T22:09:08.954Z,93.50
2018-06-13T22:11:42.724Z,93.50
2018-06-13T22:14:11.200Z,93.40
2018-06-13T22:16:39.685Z,93.30
2018-06-13T22:19:08.144Z,93.40
2018-06-13T22:21:36.619Z,93.30
2018-06-13T22:24:05.077Z,93.50
2018-06-13T22:26:33.555Z,93.40
2018-06-13T22:29:01.996Z,93.40
2018-06-13T22:31:30.463Z,93.50
2018-06-13T22:33:58.916Z,93.50
2018-06-13T22:38:55.509Z,93.80
2018-06-13T22:41:23.955Z,93.60
2018-06-13T22:46:20.560Z,93.90
2018-06-13T22:48:49.044Z,94.10
2018-06-13T22:51:17.527Z,93.70
2018-06-13T22:53:46.020Z,93.70
2018-06-13T22:56:14.484Z,94.10
2018-06-13T22:58:42.935Z,93.90
2018-06-13T23:01:12.432Z,94.00
2018-06-13T23:08:38.979Z,93.70
2018-06-13T23:11:07.508Z,93.90
2018-06-13T23:13:35.964Z,93.60
2018-06-13T23:16:04.455Z,93.70
2018-06-13T23:18:32.920Z,93.90
2018-06-13T23:23:30.271Z,94.10
2018-06-13T23:25:58.728Z,94.10
2018-06-13T23:28:27.228Z,94.20
2018-06-13T23:30:55.697Z,93.70
2018-06-13T23:33:24.156Z,93.60
2018-06-13T23:35:52.633Z,94.20
2018-06-13T23:38:21.086Z,93.80
2018-06-13T23:40:49.567Z,93.90
2018-06-13T23:43:18.024Z,94.00
2018-06-13T23:45:46.508Z,94.10
2018-06-13T23:48:14.969Z,94.60
2018-06-13T23:50:43.468Z,94.20
2018-06-13T23:53:11.951Z,93.80
2018-06-13T23:55:40.431Z,93.80
2018-06-13T23:58:08.896Z,93.90
